Time;durP1;ratioP1;P1;durP2;ratioP2;P2;SDS_P1;SDS_P2;PMS_P1;PMS_P2;Temp;Humidity;BMP_temperature;BMP_pressure;BME280_temperature;BME280_humidity;BME280_pressure;Samples;Min_cycle;Max_cycle;Signal;HPM_P1;HPM_P2
2021/06/04 00:00:21;;;;;;;;;;;18.10;89.90;;;;;;4995918;28;19975;-63
2021/06/04 00:02:49;;;;;;;;;;;18.00;89.80;;;;;;4998250;28;19926;-64
2021/06/04 00:05:30;;;;;;;;;;;18.00;90.20;;;;;;5000862;28;19932;-64
2021/06/04 00:08:03;;;;;;;;;;;18.00;90.10;;;;;;5001162;28;20094;-64
2021/06/04 00:10:32;;;;;;;;;;;18.10;90.00;;;;;;4999772;28;20211;-65
2021/06/04 00:13:12;;;;;;;;;;;18.20;89.80;;;;;;4999618;28;19952;-64
2021/06/04 00:15:41;;;;;;;;;;;18.20;89.60;;;;;;5000115;28;19952;-64
2021/06/04 00:18:08;;;;;;;;;;;18.20;89.50;;;;;;5000849;28;20200;-64
2021/06/04 00:20:34;;;;;;;;;;;18.20;89.20;;;;;;4998822;28;20201;-64
2021/06/04 00:23:02;;;;;;;;;;;18.10;89.90;;;;;;5000224;28;19964;-64
2021/06/04 00:25:29;;;;;;;;;;;18.10;89.90;;;;;;4999200;28;19925;-64
2021/06/04 00:27:56;;;;;;;;;;;18.10;89.70;;;;;;4999680;28;19926;-64
2021/06/04 00:30:23;;;;;;;;;;;18.00;90.10;;;;;;5000132;28;20033;-64
2021/06/04 00:32:51;;;;;;;;;;;17.90;90.10;;;;;;4998987;28;19937;-64
2021/06/04 00:35:18;;;;;;;;;;;18.00;90.50;;;;;;4999729;28;19949;-64
2021/06/04 00:37:45;;;;;;;;;;;17.90;90.20;;;;;;4998257;28;20155;-64
2021/06/04 00:40:13;;;;;;;;;;;17.80;90.30;;;;;;4982286;28;20112;-64
2021/06/04 00:42:40;;;;;;;;;;;17.90;90.60;;;;;;4980121;28;19929;-64
2021/06/04 00:45:09;;;;;;;;;;;17.90;90.90;;;;;;4998268;28;19917;-63
2021/06/04 00:47:36;;;;;;;;;;;18.00;90.70;;;;;;4996897;28;19926;-64
2021/06/04 00:50:07;;;;;;;;;;;18.00;90.30;;;;;;4995126;28;20247;-64
2021/06/04 00:52:34;;;;;;;;;;;17.90;90.30;;;;;;4995885;28;19917;-64
2021/06/04 00:55:05;;;;;;;;;;;17.90;90.10;;;;;;4996599;28;19926;-63
2021/06/04 00:57:32;;;;;;;;;;;17.80;90.10;;;;;;4997688;28;19932;-64
2021/06/04 01:00:02;;;;;;;;;;;17.70;90.40;;;;;;4998417;28;19918;-64
2021/06/04 01:02:34;;;;;;;;;;;17.70;90.30;;;;;;4995172;28;19925;-64
2021/06/04 01:05:06;;;;;;;;;;;17.70;89.90;;;;;;4993309;28;20046;-63
2021/06/04 01:07:36;;;;;;;;;;;17.60;90.00;;;;;;4976482;28;19929;-64
2021/06/04 01:10:14;;;;;;;;;;;17.60;89.80;;;;;;4976936;28;20264;-64
2021/06/04 01:12:53;;;;;;;;;;;17.60;89.90;;;;;;4978012;28;19926;-64
2021/06/04 01:15:41;;;;;;;;;;;17.70;90.40;;;;;;4991958;28;20264;-64
2021/06/04 01:18:10;;;;;;;;;;;17.60;90.20;;;;;;4978289;28;19918;-65
2021/06/04 01:20:41;;;;;;;;;;;17.60;90.40;;;;;;4991848;28;19918;-64
2021/06/04 01:23:31;;;;;;;;;;;17.60;90.30;;;;;;4978603;28;20141;-64
2021/06/04 01:26:01;;;;;;;;;;;17.70;90.20;;;;;;4978481;28;19930;-64
2021/06/04 01:28:31;;;;;;;;;;;17.70;90.30;;;;;;4980539;28;20190;-64
2021/06/04 01:31:01;;;;;;;;;;;17.70;90.30;;;;;;4978498;28;19988;-64
2021/06/04 01:33:33;;;;;;;;;;;17.70;90.10;;;;;;4977967;28;19965;-64
2021/06/04 01:36:01;;;;;;;;;;;17.70;90.10;;;;;;4975974;28;20001;-64
2021/06/04 01:38:32;;;;;;;;;;;17.70;90.10;;;;;;4978894;28;20205;-64
2021/06/04 01:41:02;;;;;;;;;;;17.60;90.00;;;;;;4994117;28;20006;-63
2021/06/04 01:43:31;;;;;;;;;;;17.60;89.90;;;;;;4990872;28;19926;-64
2021/06/04 01:45:59;;;;;;;;;;;17.60;90.00;;;;;;4978467;28;20040;-64
2021/06/04 01:48:32;;;;;;;;;;;17.60;90.10;;;;;;4980278;28;19926;-64
2021/06/04 01:51:09;;;;;;;;;;;17.60;90.10;;;;;;4993205;28;19930;-63
2021/06/04 01:53:46;;;;;;;;;;;17.60;90.20;;;;;;4979206;28;19925;-63
2021/06/04 01:56:16;;;;;;;;;;;17.60;90.20;;;;;;4978621;28;19932;-64
2021/06/04 01:58:46;;;;;;;;;;;17.60;90.20;;;;;;4976994;28;20206;-64
2021/06/04 02:01:18;;;;;;;;;;;17.70;89.80;;;;;;4972322;28;19992;-64
2021/06/04 02:03:49;;;;;;;;;;;17.60;89.60;;;;;;4998444;28;19918;-64
2021/06/04 02:06:24;;;;;;;;;;;17.70;89.70;;;;;;4999938;28;19951;-64
2021/06/04 02:08:53;;;;;;;;;;;17.70;89.40;;;;;;5001752;28;19925;-64
2021/06/04 02:11:32;;;;;;;;;;;17.70;89.70;;;;;;4995651;28;20402;-64
2021/06/04 02:14:02;;;;;;;;;;;17.70;89.70;;;;;;4999379;28;19926;-63
2021/06/04 02:16:42;;;;;;;;;;;17.70;89.50;;;;;;4997134;28;19925;-63
2021/06/04 02:19:16;;;;;;;;;;;17.70;89.30;;;;;;4995974;28;19924;-65
2021/06/04 02:21:55;;;;;;;;;;;17.60;89.20;;;;;;4994835;28;19925;-65
2021/06/04 02:24:26;;;;;;;;;;;17.60;89.30;;;;;;4999774;28;19918;-65
2021/06/04 02:26:56;;;;;;;;;;;17.60;89.50;;;;;;4999546;28;19948;-65
2021/06/04 02:29:25;;;;;;;;;;;17.60;89.60;;;;;;4996965;28;20040;-64
2021/06/04 02:31:53;;;;;;;;;;;17.50;89.90;;;;;;4996029;28;19932;-65
2021/06/04 02:34:22;;;;;;;;;;;17.40;90.10;;;;;;4994876;28;20203;-65
2021/06/04 02:36:53;;;;;;;;;;;17.50;90.00;;;;;;4994390;28;20047;-65
2021/06/04 02:39:21;;;;;;;;;;;17.50;89.90;;;;;;4995944;28;19917;-65
2021/06/04 02:41:55;;;;;;;;;;;17.50;89.90;;;;;;4996343;28;19918;-65
2021/06/04 02:44:25;;;;;;;;;;;17.40;90.00;;;;;;4996623;28;19971;-65
2021/06/04 02:46:54;;;;;;;;;;;17.50;90.00;;;;;;4995652;28;19929;-66
2021/06/04 02:49:22;;;;;;;;;;;17.50;89.90;;;;;;4996276;28;20217;-65
2021/06/04 02:51:54;;;;;;;;;;;17.50;89.80;;;;;;4994570;28;19949;-65
2021/06/04 02:54:24;;;;;;;;;;;17.50;89.90;;;;;;4995833;28;19921;-65
2021/06/04 02:56:53;;;;;;;;;;;17.50;89.90;;;;;;4995345;28;19924;-65
2021/06/04 02:59:21;;;;;;;;;;;17.40;90.00;;;;;;4996009;28;20025;-65
2021/06/04 03:01:56;;;;;;;;;;;17.30;90.30;;;;;;4990218;28;19944;-65
2021/06/04 03:04:25;;;;;;;;;;;17.20;90.90;;;;;;4996934;28;19933;-65
2021/06/04 03:06:53;;;;;;;;;;;17.10;91.00;;;;;;4976751;28;20002;-65
2021/06/04 03:09:25;;;;;;;;;;;17.20;91.30;;;;;;4994881;28;20429;-65
2021/06/04 03:11:54;;;;;;;;;;;17.20;91.20;;;;;;4995657;28;20485;-65
2021/06/04 03:14:22;;;;;;;;;;;17.30;91.10;;;;;;4995952;28;19917;-65
2021/06/04 03:16:51;;;;;;;;;;;17.30;91.10;;;;;;4997975;28;19929;-65
2021/06/04 03:19:20;;;;;;;;;;;17.20;91.10;;;;;;4997866;28;19945;-65
2021/06/04 03:21:51;;;;;;;;;;;17.30;91.00;;;;;;4994179;28;19918;-65
2021/06/04 03:24:19;;;;;;;;;;;17.30;91.00;;;;;;4992535;28;19929;-65
2021/06/04 03:26:46;;;;;;;;;;;17.40;90.30;;;;;;4996537;28;20052;-65
2021/06/04 03:29:15;;;;;;;;;;;17.50;90.10;;;;;;4996464;28;19918;-65
2021/06/04 03:31:46;;;;;;;;;;;17.50;89.70;;;;;;4980698;28;19926;-65
2021/06/04 03:34:15;;;;;;;;;;;17.50;89.70;;;;;;4997381;28;19926;-65
2021/06/04 03:36:45;;;;;;;;;;;17.40;89.80;;;;;;4994066;28;20244;-65
2021/06/04 03:39:13;;;;;;;;;;;17.30;90.20;;;;;;4997511;28;20051;-65
2021/06/04 03:41:42;;;;;;;;;;;17.30;90.20;;;;;;4994502;28;19992;-65
2021/06/04 03:44:09;;;;;;;;;;;17.20;90.20;;;;;;4978165;28;19957;-65
2021/06/04 03:46:37;;;;;;;;;;;17.10;90.50;;;;;;4980984;28;19937;-65
2021/06/04 03:49:12;;;;;;;;;;;17.10;90.90;;;;;;4996483;28;19932;-65
2021/06/04 03:51:41;;;;;;;;;;;17.00;91.00;;;;;;4996922;28;19926;-66
2021/06/04 03:54:10;;;;;;;;;;;17.00;91.10;;;;;;4997943;28;19925;-65
2021/06/04 03:56:37;;;;;;;;;;;16.90;91.00;;;;;;4995234;28;20187;-65
2021/06/04 03:59:08;;;;;;;;;;;16.80;90.70;;;;;;4997572;28;20032;-65
2021/06/04 04:01:36;;;;;;;;;;;16.80;91.00;;;;;;4974371;28;19936;-65
2021/06/04 04:04:04;;;;;;;;;;;16.80;91.00;;;;;;4996412;28;19936;-65
2021/06/04 04:06:31;;;;;;;;;;;16.80;91.10;;;;;;4997254;28;19925;-65
2021/06/04 04:08:59;;;;;;;;;;;16.80;91.20;;;;;;4995925;28;20016;-65
2021/06/04 04:11:26;;;;;;;;;;;16.90;91.10;;;;;;4997625;28;20177;-65
2021/06/04 04:13:53;;;;;;;;;;;17.00;90.70;;;;;;4995844;28;19929;-65
2021/06/04 04:16:20;;;;;;;;;;;17.00;90.30;;;;;;4993755;28;20296;-66
2021/06/04 04:18:47;;;;;;;;;;;17.00;90.30;;;;;;4997410;28;19961;-65
2021/06/04 04:21:14;;;;;;;;;;;17.00;90.20;;;;;;4997574;28;19925;-65
2021/06/04 04:23:42;;;;;;;;;;;17.00;90.50;;;;;;4997979;28;20088;-65
2021/06/04 04:26:12;;;;;;;;;;;17.00;90.60;;;;;;4996666;28;19980;-65
2021/06/04 04:28:39;;;;;;;;;;;17.00;90.70;;;;;;4981186;28;19917;-65
2021/06/04 04:31:07;;;;;;;;;;;17.10;91.00;;;;;;4997448;28;19933;-65
2021/06/04 04:33:33;;;;;;;;;;;17.20;90.60;;;;;;4997861;28;19925;-65
2021/06/04 04:36:03;;;;;;;;;;;17.30;90.20;;;;;;4998630;28;19918;-65
2021/06/04 04:38:30;;;;;;;;;;;17.40;90.00;;;;;;4999148;28;19965;-65
2021/06/04 04:41:00;;;;;;;;;;;17.30;90.10;;;;;;4999411;28;20223;-65
2021/06/04 04:43:30;;;;;;;;;;;17.30;90.20;;;;;;4998071;28;19926;-65
2021/06/04 04:45:58;;;;;;;;;;;17.30;90.20;;;;;;4998567;28;19998;-65
2021/06/04 04:48:26;;;;;;;;;;;17.30;90.20;;;;;;4998371;28;19926;-65
2021/06/04 04:50:54;;;;;;;;;;;17.40;90.10;;;;;;4999583;28;19992;-65
2021/06/04 04:53:21;;;;;;;;;;;17.50;90.00;;;;;;4981029;28;19964;-65
2021/06/04 04:55:48;;;;;;;;;;;17.60;89.70;;;;;;4998309;28;20001;-65
2021/06/04 04:58:15;;;;;;;;;;;17.60;89.10;;;;;;4999306;28;20455;-65
2021/06/04 05:00:44;;;;;;;;;;;17.70;89.20;;;;;;4994385;28;19926;-66
2021/06/04 05:03:12;;;;;;;;;;;17.70;88.70;;;;;;4998070;28;19921;-65
2021/06/04 05:05:40;;;;;;;;;;;17.80;88.30;;;;;;4999448;28;19988;-65
2021/06/04 05:08:07;;;;;;;;;;;17.90;88.90;;;;;;4998760;28;19926;-65
2021/06/04 05:10:35;;;;;;;;;;;18.00;88.50;;;;;;4997409;28;19925;-64
2021/06/04 05:13:04;;;;;;;;;;;18.00;88.10;;;;;;4998216;28;19918;-64
2021/06/04 05:15:33;;;;;;;;;;;18.10;87.90;;;;;;4998398;28;21412;-67
2021/06/04 05:18:01;;;;;;;;;;;18.20;87.80;;;;;;4996293;28;19918;-64
2021/06/04 05:20:28;;;;;;;;;;;18.40;87.10;;;;;;4997844;28;19933;-64
2021/06/04 05:22:56;;;;;;;;;;;18.40;87.30;;;;;;4997960;28;22272;-65
2021/06/04 05:25:25;;;;;;;;;;;18.70;86.20;;;;;;4997478;28;19992;-65
2021/06/04 05:27:52;;;;;;;;;;;18.80;85.60;;;;;;4998453;28;19925;-64
2021/06/04 05:30:21;;;;;;;;;;;18.90;85.10;;;;;;4998430;28;19937;-64
2021/06/04 05:32:48;;;;;;;;;;;18.90;85.10;;;;;;4998225;28;20276;-64
2021/06/04 05:35:17;;;;;;;;;;;18.90;84.80;;;;;;4999058;28;19942;-64
2021/06/04 05:37:44;;;;;;;;;;;19.00;84.70;;;;;;4999126;28;19926;-65
2021/06/04 05:40:12;;;;;;;;;;;19.00;84.00;;;;;;4997697;28;20116;-65
2021/06/04 05:42:38;;;;;;;;;;;19.00;84.30;;;;;;4997755;28;20012;-64
2021/06/04 05:45:07;;;;;;;;;;;19.00;84.00;;;;;;4999416;28;19925;-64
2021/06/04 05:47:35;;;;;;;;;;;19.00;84.40;;;;;;4982633;28;19929;-65
2021/06/04 05:50:02;;;;;;;;;;;19.10;84.70;;;;;;4999307;28;19953;-64
2021/06/04 05:52:31;;;;;;;;;;;19.10;84.40;;;;;;5000308;28;20231;-64
2021/06/04 05:54:59;;;;;;;;;;;19.20;84.00;;;;;;4999842;28;19925;-64
2021/06/04 05:57:25;;;;;;;;;;;19.20;84.00;;;;;;4998280;28;20206;-64
2021/06/04 05:59:53;;;;;;;;;;;19.40;84.10;;;;;;4998577;28;19926;-65
2021/06/04 06:02:19;;;;;;;;;;;19.50;83.80;;;;;;4993604;28;20305;-65
2021/06/04 06:04:47;;;;;;;;;;;19.50;83.90;;;;;;4997308;28;19926;-65
2021/06/04 06:07:13;;;;;;;;;;;19.60;83.50;;;;;;4998162;28;19925;-65
2021/06/04 06:09:42;;;;;;;;;;;19.70;82.80;;;;;;4995910;28;19930;-65
2021/06/04 06:12:09;;;;;;;;;;;19.70;82.40;;;;;;4996041;28;20240;-63
2021/06/04 06:14:36;;;;;;;;;;;19.80;81.80;;;;;;4981209;28;20378;-64
2021/06/04 06:17:04;;;;;;;;;;;19.90;81.20;;;;;;4996613;28;19964;-65
2021/06/04 06:19:30;;;;;;;;;;;20.00;81.10;;;;;;4996836;28;19925;-65
2021/06/04 06:21:58;;;;;;;;;;;20.10;80.80;;;;;;4996529;28;19925;-65
2021/06/04 06:24:26;;;;;;;;;;;20.10;80.50;;;;;;4995209;28;19948;-65
2021/06/04 06:26:54;;;;;;;;;;;20.20;79.60;;;;;;4996934;28;19925;-65
2021/06/04 06:29:21;;;;;;;;;;;20.20;80.10;;;;;;4995970;28;19923;-64
2021/06/04 06:31:48;;;;;;;;;;;20.40;79.50;;;;;;4995710;28;19956;-64
2021/06/04 06:34:15;;;;;;;;;;;20.40;79.30;;;;;;4996055;28;20051;-64
2021/06/04 06:36:44;;;;;;;;;;;20.60;79.60;;;;;;4996960;28;19926;-64
2021/06/04 06:39:12;;;;;;;;;;;20.60;78.50;;;;;;4996910;28;19926;-64
2021/06/04 06:41:40;;;;;;;;;;;20.70;78.20;;;;;;4995374;28;20039;-64
2021/06/04 06:44:09;;;;;;;;;;;20.60;79.50;;;;;;4995410;28;20111;-64
2021/06/04 06:46:36;;;;;;;;;;;20.90;78.80;;;;;;4996365;28;20216;-64
2021/06/04 06:49:03;;;;;;;;;;;21.10;77.70;;;;;;4996337;28;19968;-64
2021/06/04 06:51:32;;;;;;;;;;;21.20;77.10;;;;;;4997460;28;19932;-64
2021/06/04 06:54:00;;;;;;;;;;;21.20;77.50;;;;;;4996955;28;19980;-64
2021/06/04 06:56:28;;;;;;;;;;;21.20;78.10;;;;;;4997884;28;19937;-64
2021/06/04 06:58:55;;;;;;;;;;;21.40;77.00;;;;;;4997744;28;20032;-65
2021/06/04 07:01:23;;;;;;;;;;;21.60;76.40;;;;;;4991252;28;19940;-64
2021/06/04 07:03:50;;;;;;;;;;;21.60;76.30;;;;;;4993746;28;19917;-64
2021/06/04 07:06:17;;;;;;;;;;;21.60;75.90;;;;;;4995537;28;20183;-65
2021/06/04 07:08:45;;;;;;;;;;;21.50;76.50;;;;;;4996434;28;19925;-64
2021/06/04 07:11:12;;;;;;;;;;;21.70;76.00;;;;;;4997445;28;19925;-64
2021/06/04 07:13:39;;;;;;;;;;;21.70;75.80;;;;;;4997253;28;19918;-64
2021/06/04 07:16:07;;;;;;;;;;;21.80;74.90;;;;;;4997853;28;19932;-65
2021/06/04 07:18:36;;;;;;;;;;;22.10;73.70;;;;;;4997649;28;19925;-65
2021/06/04 07:21:04;;;;;;;;;;;22.10;73.90;;;;;;4997002;28;20338;-65
2021/06/04 07:23:31;;;;;;;;;;;22.20;73.20;;;;;;4997162;28;19968;-65
2021/06/04 07:26:04;;;;;;;;;;;22.30;72.20;;;;;;4993808;28;20207;-64
2021/06/04 07:28:34;;;;;;;;;;;22.50;72.90;;;;;;4998230;28;19936;-65
2021/06/04 07:31:02;;;;;;;;;;;22.80;70.80;;;;;;4997141;28;19932;-65
2021/06/04 07:33:30;;;;;;;;;;;22.90;70.30;;;;;;4996907;28;19926;-65
2021/06/04 07:36:00;;;;;;;;;;;23.00;70.00;;;;;;4995544;28;19925;-65
2021/06/04 07:38:31;;;;;;;;;;;23.20;70.10;;;;;;4995539;28;19925;-65
2021/06/04 07:40:58;;;;;;;;;;;23.30;68.70;;;;;;4997755;28;19937;-65
2021/06/04 07:43:28;;;;;;;;;;;23.20;68.20;;;;;;4997776;28;20252;-65
2021/06/04 07:45:55;;;;;;;;;;;23.20;68.10;;;;;;4997903;28;19968;-65
2021/06/04 07:48:22;;;;;;;;;;;23.30;68.10;;;;;;4997547;28;20380;-65
2021/06/04 07:50:50;;;;;;;;;;;23.50;69.10;;;;;;4995587;28;19921;-65
2021/06/04 07:53:19;;;;;;;;;;;23.60;67.10;;;;;;4997878;28;19964;-64
2021/06/04 07:55:47;;;;;;;;;;;23.50;66.60;;;;;;4997745;28;19929;-64
2021/06/04 07:58:14;;;;;;;;;;;23.20;68.80;;;;;;5000834;28;19956;-64
2021/06/04 08:00:41;;;;;;;;;;;23.50;67.60;;;;;;4994233;28;19917;-64
2021/06/04 08:03:09;;;;;;;;;;;23.60;67.70;;;;;;4995251;28;19925;-64
2021/06/04 08:05:37;;;;;;;;;;;23.50;68.00;;;;;;4999142;28;19929;-64
2021/06/04 08:08:05;;;;;;;;;;;23.60;65.90;;;;;;4998137;28;20233;-64
2021/06/04 08:10:34;;;;;;;;;;;23.60;67.10;;;;;;4998845;28;19925;-64
2021/06/04 08:13:05;;;;;;;;;;;23.60;67.80;;;;;;4998440;28;19926;-65
2021/06/04 08:15:33;;;;;;;;;;;23.70;67.30;;;;;;4998205;28;20152;-64
2021/06/04 08:18:00;;;;;;;;;;;23.70;66.90;;;;;;4997204;28;19925;-65
2021/06/04 08:20:29;;;;;;;;;;;23.70;67.90;;;;;;4998591;28;19926;-65
2021/06/04 08:22:57;;;;;;;;;;;23.60;67.30;;;;;;4998097;28;19926;-64
2021/06/04 08:25:26;;;;;;;;;;;23.60;68.50;;;;;;4996414;28;19922;-64
2021/06/04 08:27:54;;;;;;;;;;;23.60;67.30;;;;;;4998601;28;19952;-64
2021/06/04 08:30:21;;;;;;;;;;;23.60;67.50;;;;;;4999196;28;19925;-66
2021/06/04 08:32:48;;;;;;;;;;;23.70;67.10;;;;;;4998275;28;19953;-64
2021/06/04 08:35:14;;;;;;;;;;;23.60;66.10;;;;;;4999122;28;19917;-64
2021/06/04 08:37:41;;;;;;;;;;;23.60;65.20;;;;;;4997825;28;19988;-65
2021/06/04 08:40:11;;;;;;;;;;;23.60;65.00;;;;;;5000471;28;20212;-65
2021/06/04 08:42:43;;;;;;;;;;;23.80;63.70;;;;;;4982329;28;19933;-64
2021/06/04 08:45:17;;;;;;;;;;;23.90;64.10;;;;;;5000498;28;19925;-65
2021/06/04 08:47:48;;;;;;;;;;;24.00;62.90;;;;;;5000330;28;19952;-64
2021/06/04 08:50:22;;;;;;;;;;;24.10;62.40;;;;;;4984477;28;19926;-66
2021/06/04 08:52:53;;;;;;;;;;;24.20;62.80;;;;;;4999999;28;20335;-64
2021/06/04 08:55:29;;;;;;;;;;;24.10;62.90;;;;;;4999777;28;19929;-64
2021/06/04 08:57:59;;;;;;;;;;;24.30;62.10;;;;;;4983330;28;19993;-64
2021/06/04 09:00:30;;;;;;;;;;;24.30;62.30;;;;;;4994391;28;19926;-64
2021/06/04 09:03:00;;;;;;;;;;;24.30;62.80;;;;;;4996374;28;19926;-64
2021/06/04 09:05:32;;;;;;;;;;;24.10;63.60;;;;;;4999247;28;19925;-64
2021/06/04 09:07:59;;;;;;;;;;;24.30;62.30;;;;;;4999372;28;19926;-64
2021/06/04 09:10:29;;;;;;;;;;;24.50;58.60;;;;;;4999061;28;19927;-63
2021/06/04 09:13:03;;;;;;;;;;;24.60;61.20;;;;;;5000085;28;19918;-64
2021/06/04 09:15:32;;;;;;;;;;;24.50;58.70;;;;;;4999281;28;20152;-64
2021/06/04 09:18:01;;;;;;;;;;;24.60;59.90;;;;;;5001809;28;19953;-65
2021/06/04 09:20:30;;;;;;;;;;;24.70;59.70;;;;;;4997682;28;19936;-64
2021/06/04 09:23:00;;;;;;;;;;;24.80;59.80;;;;;;4999265;28;20247;-64
2021/06/04 09:25:28;;;;;;;;;;;24.90;58.10;;;;;;4998639;28;19926;-64
2021/06/04 09:28:09;;;;;;;;;;;25.00;58.90;;;;;;4999569;28;19989;-63
2021/06/04 09:30:38;;;;;;;;;;;25.30;57.50;;;;;;5000033;28;19917;-63
2021/06/04 09:33:07;;;;;;;;;;;25.50;58.30;;;;;;5000187;28;19925;-63
2021/06/04 09:35:35;;;;;;;;;;;25.80;55.70;;;;;;4999438;28;20146;-63
2021/06/04 09:38:11;;;;;;;;;;;26.10;54.80;;;;;;5000173;28;20176;-63
2021/06/04 09:40:38;;;;;;;;;;;25.90;53.40;;;;;;5000004;28;19932;-64
2021/06/04 09:43:08;;;;;;;;;;;26.00;53.70;;;;;;4996458;28;20199;-64
2021/06/04 09:45:37;;;;;;;;;;;25.90;52.00;;;;;;4992893;28;19926;-64
2021/06/04 09:48:11;;;;;;;;;;;26.00;52.80;;;;;;4998399;28;20076;-64
2021/06/04 09:50:39;;;;;;;;;;;26.10;51.60;;;;;;4994291;28;20015;-64
2021/06/04 09:53:12;;;;;;;;;;;26.40;49.20;;;;;;4994334;28;19996;-64
2021/06/04 09:55:40;;;;;;;;;;;26.70;49.80;;;;;;4994405;28;19917;-64
2021/06/04 09:58:19;;;;;;;;;;;27.10;49.10;;;;;;4996116;28;20313;-65
2021/06/04 10:00:46;;;;;;;;;;;27.00;47.90;;;;;;4989367;28;19926;-65
2021/06/04 10:03:19;;;;;;;;;;;27.00;47.70;;;;;;4994887;28;19945;-64
2021/06/04 10:05:47;;;;;;;;;;;26.90;46.50;;;;;;4997464;28;19953;-64
2021/06/04 10:08:19;;;;;;;;;;;26.80;46.30;;;;;;4996522;28;19925;-63
2021/06/04 10:10:47;;;;;;;;;;;26.50;47.70;;;;;;4994012;28;19957;-64
2021/06/04 10:13:25;;;;;;;;;;;26.60;46.80;;;;;;4996693;28;19933;-64
2021/06/04 10:15:53;;;;;;;;;;;27.10;45.10;;;;;;4996106;28;19926;-64
2021/06/04 10:18:31;;;;;;;;;;;27.80;45.70;;;;;;4997174;28;19932;-64
2021/06/04 10:21:11;;;;;;;;;;;27.80;45.80;;;;;;4993049;28;19950;-63
2021/06/04 10:23:38;;;;;;;;;;;28.10;43.40;;;;;;4994612;28;20133;-64
2021/06/04 10:26:17;;;;;;;;;;;28.80;42.30;;;;;;4997016;28;19989;-64
2021/06/04 10:28:45;;;;;;;;;;;29.40;41.70;;;;;;4996409;28;19925;-64
2021/06/04 10:31:41;;;;;;;;;;;30.10;41.40;;;;;;4997804;28;19936;-64
2021/06/04 10:34:22;;;;;;;;;;;31.10;39.90;;;;;;4996372;28;19925;-64
2021/06/04 10:36:52;;;;;;;;;;;32.30;37.50;;;;;;4997927;28;20294;-65
2021/06/04 10:39:20;;;;;;;;;;;33.20;36.60;;;;;;4998246;28;19938;-64
2021/06/04 10:41:52;;;;;;;;;;;33.70;35.90;;;;;;4997496;28;19926;-65
2021/06/04 10:44:24;;;;;;;;;;;34.30;36.70;;;;;;4993928;28;19925;-65
2021/06/04 10:46:53;;;;;;;;;;;34.40;34.40;;;;;;4997794;28;20232;-65
2021/06/04 10:49:28;;;;;;;;;;;33.80;34.70;;;;;;4997932;28;19948;-65
2021/06/04 10:51:57;;;;;;;;;;;35.30;34.00;;;;;;4998717;28;19924;-65
2021/06/04 10:54:35;;;;;;;;;;;35.60;31.50;;;;;;4998305;28;20117;-65
2021/06/04 10:57:06;;;;;;;;;;;36.00;31.90;;;;;;5001117;28;20204;-65
2021/06/04 10:59:36;;;;;;;;;;;36.30;31.50;;;;;;5000670;28;20305;-65
2021/06/04 11:02:06;;;;;;;;;;;37.20;29.60;;;;;;4994225;28;19925;-65
2021/06/04 11:04:38;;;;;;;;;;;37.50;29.50;;;;;;4998052;28;19925;-65
2021/06/04 11:07:08;;;;;;;;;;;37.90;30.30;;;;;;4998495;28;19933;-65
2021/06/04 11:09:43;;;;;;;;;;;38.60;28.20;;;;;;4999783;28;19922;-65
2021/06/04 11:12:15;;;;;;;;;;;38.70;28.30;;;;;;4998086;28;19932;-65
2021/06/04 11:14:49;;;;;;;;;;;39.90;26.70;;;;;;4999393;28;19972;-65
2021/06/04 11:17:22;;;;;;;;;;;40.40;25.70;;;;;;4998097;28;19917;-65
2021/06/04 11:19:52;;;;;;;;;;;38.50;27.80;;;;;;4996967;28;19929;-65
2021/06/04 11:22:20;;;;;;;;;;;38.50;28.60;;;;;;4996537;28;19975;-65
2021/06/04 11:24:49;;;;;;;;;;;39.20;26.90;;;;;;4996439;28;19964;-65
2021/06/04 11:27:19;;;;;;;;;;;38.20;28.00;;;;;;4998029;28;19926;-65
2021/06/04 11:29:46;;;;;;;;;;;38.00;27.80;;;;;;5000173;28;19925;-66
2021/06/04 11:32:17;;;;;;;;;;;39.40;28.00;;;;;;4998689;28;19925;-65
2021/06/04 11:34:47;;;;;;;;;;;40.60;26.50;;;;;;4995906;28;19933;-64
2021/06/04 11:37:21;;;;;;;;;;;40.80;26.50;;;;;;4998633;28;19918;-65
2021/06/04 11:39:49;;;;;;;;;;;41.60;25.10;;;;;;4995022;28;19929;-65
2021/06/04 11:42:18;;;;;;;;;;;42.20;24.10;;;;;;4995537;28;19918;-65
2021/06/04 11:44:47;;;;;;;;;;;42.50;24.40;;;;;;4996817;28;20082;-65
2021/06/04 11:47:27;;;;;;;;;;;41.70;24.40;;;;;;4999155;28;19918;-65
2021/06/04 11:50:09;;;;;;;;;;;42.30;24.20;;;;;;5001034;28;20244;-65
2021/06/04 11:52:39;;;;;;;;;;;42.50;24.00;;;;;;4999737;28;19955;-66
2021/06/04 11:55:10;;;;;;;;;;;42.70;23.50;;;;;;4998141;28;20221;-65
2021/06/04 11:57:45;;;;;;;;;;;42.90;23.40;;;;;;5001648;28;19917;-70
2021/06/04 12:00:29;;;;;;;;;;;43.50;22.40;;;;;;4998896;28;20028;-65
2021/06/04 12:03:18;;;;;;;;;;;41.80;24.70;;;;;;5002694;28;20187;-65
2021/06/04 12:05:45;;;;;;;;;;;40.20;25.40;;;;;;4996514;28;19957;-65
2021/06/04 12:08:15;;;;;;;;;;;38.40;27.80;;;;;;4998490;28;19932;-64
2021/06/04 12:11:02;;;;;;;;;;;37.00;29.20;;;;;;5000144;28;20252;-64
2021/06/04 12:13:31;;;;;;;;;;;35.60;31.50;;;;;;4995236;28;20149;-64
2021/06/04 12:16:13;;;;;;;;;;;34.80;32.80;;;;;;4997259;28;19935;-64
2021/06/04 12:18:51;;;;;;;;;;;34.10;33.90;;;;;;4998935;28;19925;-65
2021/06/04 12:21:36;;;;;;;;;;;33.90;34.40;;;;;;4994857;28;19935;-65
2021/06/04 12:24:06;;;;;;;;;;;33.70;34.50;;;;;;4998326;28;19925;-64
2021/06/04 12:26:36;;;;;;;;;;;33.30;34.70;;;;;;4998135;28;19925;-65
2021/06/04 12:29:17;;;;;;;;;;;33.10;35.40;;;;;;4993451;28;19925;-65
2021/06/04 12:31:52;;;;;;;;;;;32.70;36.90;;;;;;5000664;28;19926;-65
2021/06/04 12:34:33;;;;;;;;;;;32.60;36.40;;;;;;4998617;28;19930;-64
2021/06/04 12:37:05;;;;;;;;;;;32.20;37.90;;;;;;5002716;28;19926;-64
2021/06/04 12:39:42;;;;;;;;;;;31.90;37.50;;;;;;5003133;28;19932;-64
2021/06/04 12:42:21;;;;;;;;;;;31.60;39.60;;;;;;4997488;28;19918;-65
2021/06/04 12:44:52;;;;;;;;;;;31.20;39.70;;;;;;5000441;28;19949;-64
2021/06/04 12:47:20;;;;;;;;;;;30.90;39.40;;;;;;4999881;28;20228;-64
2021/06/04 12:49:47;;;;;;;;;;;30.50;40.20;;;;;;4998661;28;19934;-65
2021/06/04 12:52:14;;;;;;;;;;;30.00;42.40;;;;;;4995636;28;19922;-65
2021/06/04 12:54:42;;;;;;;;;;;28.60;44.70;;;;;;5000332;28;19918;-64
2021/06/04 12:57:19;;;;;;;;;;;27.80;46.40;;;;;;4998816;28;19960;-64
2021/06/04 12:59:48;;;;;;;;;;;27.10;47.80;;;;;;4996784;28;19926;-65
2021/06/04 13:02:17;;;;;;;;;;;27.50;46.90;;;;;;4991767;28;19993;-66
2021/06/04 13:04:46;;;;;;;;;;;27.60;46.60;;;;;;4996758;28;19926;-65
2021/06/04 13:07:18;;;;;;;;;;;27.80;47.10;;;;;;4999711;28;19960;-64
2021/06/04 13:09:57;;;;;;;;;;;27.80;46.80;;;;;;4997637;28;19918;-64
2021/06/04 13:12:32;;;;;;;;;;;27.60;47.20;;;;;;4979763;28;19918;-64
2021/06/04 13:15:15;;;;;;;;;;;27.10;47.90;;;;;;5000250;28;19952;-64
2021/06/04 13:17:51;;;;;;;;;;;27.10;48.00;;;;;;4998590;28;19929;-64
2021/06/04 13:20:22;;;;;;;;;;;26.80;48.30;;;;;;4999274;28;19949;-64
2021/06/04 13:22:50;;;;;;;;;;;26.70;48.50;;;;;;4997034;28;19926;-64
2021/06/04 13:25:24;;;;;;;;;;;26.40;49.00;;;;;;4996835;28;19996;-64
2021/06/04 13:27:59;;;;;;;;;;;26.20;49.80;;;;;;4977844;28;19918;-64
2021/06/04 13:30:31;;;;;;;;;;;26.10;50.10;;;;;;4986918;28;19925;-64
2021/06/04 13:33:00;;;;;;;;;;;26.00;50.30;;;;;;4989898;28;20549;-64
2021/06/04 13:35:31;;;;;;;;;;;25.90;50.40;;;;;;4990253;28;19926;-64
2021/06/04 13:37:59;;;;;;;;;;;25.70;51.20;;;;;;4994088;28;19976;-64
2021/06/04 13:40:31;;;;;;;;;;;25.40;52.00;;;;;;4988033;28;19930;-64
2021/06/04 13:42:59;;;;;;;;;;;25.00;52.60;;;;;;4990968;28;19968;-64
2021/06/04 13:45:26;;;;;;;;;;;24.80;53.50;;;;;;4992829;28;19997;-63
2021/06/04 13:48:03;;;;;;;;;;;25.00;53.60;;;;;;4993228;28;20074;-65
2021/06/04 13:50:34;;;;;;;;;;;25.00;53.10;;;;;;4991784;28;19949;-64
2021/06/04 13:53:25;;;;;;;;;;;25.10;54.50;;;;;;4995987;28;19934;-65
2021/06/04 13:58:48;;;;;;;;;;;25.10;53.50;;;;;;5112627;27;19923;-64
2021/06/04 14:01:17;;;;;;;;;;;25.00;54.10;;;;;;5094399;28;20021;-63
2021/06/04 14:03:44;;;;;;;;;;;24.80;54.90;;;;;;5101916;28;19935;-65
2021/06/04 14:06:25;;;;;;;;;;;24.70;54.90;;;;;;5105447;28;19935;-64
2021/06/04 14:08:56;;;;;;;;;;;24.60;55.70;;;;;;5099317;28;19928;-63
2021/06/04 14:11:23;;;;;;;;;;;24.50;56.40;;;;;;5099132;28;19929;-63
2021/06/04 14:14:00;;;;;;;;;;;24.40;57.30;;;;;;5104136;28;20239;-64
2021/06/04 14:16:38;;;;;;;;;;;24.30;58.70;;;;;;5094407;28;20208;-63
2021/06/04 14:19:06;;;;;;;;;;;24.30;60.00;;;;;;5095877;28;19928;-63
2021/06/04 14:21:41;;;;;;;;;;;24.20;61.80;;;;;;5087077;28;20069;-63
2021/06/04 14:24:23;;;;;;;;;;;24.00;64.50;;;;;;5094842;28;20219;-65
2021/06/04 14:26:51;;;;;;;;;;;23.90;64.70;;;;;;5100576;28;19933;-65
2021/06/04 14:29:23;;;;;;;;;;;23.90;66.00;;;;;;5094561;28;19943;-63
2021/06/04 14:31:52;;;;;;;;;;;24.00;67.20;;;;;;5094829;28;19920;-63
2021/06/04 14:34:20;;;;;;;;;;;23.80;66.90;;;;;;5098143;28;19952;-63
2021/06/04 14:36:47;;;;;;;;;;;23.70;66.80;;;;;;5094706;28;19990;-64